sensor_id;sensor_type;location;lat;lon;timestamp;pressure;altitude;pressure_sealevel;temperature;humidity
47742;BME280;33504;52.066;6.096;2023-01-30T00:01:01;101615.17;;;5.97;53.03
47742;BME280;33504;52.066;6.096;2023-01-30T00:03:29;101617.56;;;6.58;51.88
47742;BME280;33504;52.066;6.096;2023-01-30T00:05:56;101610.20;;;6.25;52.21
47742;BME280;33504;52.066;6.096;2023-01-30T00:08:23;101619.17;;;6.30;52.40
47742;BME280;33504;52.066;6.096;2023-01-30T00:10:50;101600.66;;;6.06;52.87
47742;BME280;33504;52.066;6.096;2023-01-30T00:13:17;101611.27;;;6.17;52.86
47742;BME280;33504;52.066;6.096;2023-01-30T00:15:44;101590.29;;;6.53;52.28
47742;BME280;33504;52.066;6.096;2023-01-30T00:18:11;101603.57;;;6.66;51.99
47742;BME280;33504;52.066;6.096;2023-01-30T00:20:38;101602.93;;;6.33;52.75
47742;BME280;33504;52.066;6.096;2023-01-30T00:23:05;101602.69;;;6.46;52.40
47742;BME280;33504;52.066;6.096;2023-01-30T00:25:32;101607.12;;;6.18;52.99
47742;BME280;33504;52.066;6.096;2023-01-30T00:28:00;101591.93;;;6.48;52.70
47742;BME280;33504;52.066;6.096;2023-01-30T00:30:28;101590.51;;;6.53;52.63
47742;BME280;33504;52.066;6.096;2023-01-30T00:32:55;101582.51;;;6.35;53.01
47742;BME280;33504;52.066;6.096;2023-01-30T00:35:23;101558.20;;;5.81;54.09
47742;BME280;33504;52.066;6.096;2023-01-30T00:37:50;101566.61;;;6.04;53.76
47742;BME280;33504;52.066;6.096;2023-01-30T00:40:17;101568.12;;;6.11;53.43
47742;BME280;33504;52.066;6.096;2023-01-30T00:42:44;101571.78;;;5.95;53.94
47742;BME280;33504;52.066;6.096;2023-01-30T00:45:12;101559.50;;;6.14;53.51
47742;BME280;33504;52.066;6.096;2023-01-30T00:47:40;101563.63;;;6.59;52.57
47742;BME280;33504;52.066;6.096;2023-01-30T00:50:08;101559.39;;;6.38;53.20
47742;BME280;33504;52.066;6.096;2023-01-30T00:52:35;101548.96;;;6.40;53.27
47742;BME280;33504;52.066;6.096;2023-01-30T00:55:03;101539.92;;;6.37;53.38
47742;BME280;33504;52.066;6.096;2023-01-30T00:57:30;101531.81;;;6.27;53.62
47742;BME280;33504;52.066;6.096;2023-01-30T00:59:57;101515.56;;;6.17;53.94
47742;BME280;33504;52.066;6.096;2023-01-30T01:02:24;101524.06;;;6.45;53.42
47742;BME280;33504;52.066;6.096;2023-01-30T01:04:52;101524.33;;;6.25;53.88
47742;BME280;33504;52.066;6.096;2023-01-30T01:07:18;101510.62;;;6.43;53.70
47742;BME280;33504;52.066;6.096;2023-01-30T01:09:46;101493.71;;;6.08;54.41
47742;BME280;33504;52.066;6.096;2023-01-30T01:12:13;101504.40;;;6.30;54.09
47742;BME280;33504;52.066;6.096;2023-01-30T01:14:40;101512.01;;;6.44;53.81
47742;BME280;33504;52.066;6.096;2023-01-30T01:17:07;101516.45;;;6.63;53.63
47742;BME280;33504;52.066;6.096;2023-01-30T01:19:34;101525.00;;;6.57;53.37
47742;BME280;33504;52.066;6.096;2023-01-30T01:22:01;101516.93;;;6.77;52.95
47742;BME280;33504;52.066;6.096;2023-01-30T01:24:29;101512.69;;;6.96;52.93
47742;BME280;33504;52.066;6.096;2023-01-30T01:26:56;101501.71;;;6.75;53.36
47742;BME280;33504;52.066;6.096;2023-01-30T01:29:24;101494.03;;;6.57;53.89
47742;BME280;33504;52.066;6.096;2023-01-30T01:31:52;101485.54;;;6.63;53.98
47742;BME280;33504;52.066;6.096;2023-01-30T01:34:19;101488.50;;;6.60;54.15
47742;BME280;33504;52.066;6.096;2023-01-30T01:36:48;101475.51;;;6.60;53.96
47742;BME280;33504;52.066;6.096;2023-01-30T01:39:15;101490.02;;;6.61;54.61
47742;BME280;33504;52.066;6.096;2023-01-30T01:41:42;101464.93;;;6.15;55.62
47742;BME280;33504;52.066;6.096;2023-01-30T01:44:10;101463.94;;;6.49;55.18
47742;BME280;33504;52.066;6.096;2023-01-30T01:46:41;101468.10;;;6.45;55.07
47742;BME280;33504;52.066;6.096;2023-01-30T01:49:14;101454.61;;;6.77;54.48
47742;BME280;33504;52.066;6.096;2023-01-30T01:51:47;101451.72;;;6.85;54.42
47742;BME280;33504;52.066;6.096;2023-01-30T01:54:21;101438.41;;;6.71;54.66
47742;BME280;33504;52.066;6.096;2023-01-30T01:56:50;101436.36;;;6.89;54.72
47742;BME280;33504;52.066;6.096;2023-01-30T01:59:21;101433.29;;;7.04;54.26
47742;BME280;33504;52.066;6.096;2023-01-30T02:01:52;101442.86;;;7.10;54.07
47742;BME280;33504;52.066;6.096;2023-01-30T02:04:22;101445.95;;;7.01;54.01
47742;BME280;33504;52.066;6.096;2023-01-30T02:06:50;101443.76;;;7.06;54.03
47742;BME280;33504;52.066;6.096;2023-01-30T02:09:17;101442.51;;;6.86;54.69
47742;BME280;33504;52.066;6.096;2023-01-30T02:11:48;101438.38;;;7.42;54.12
47742;BME280;33504;52.066;6.096;2023-01-30T02:14:18;101443.22;;;6.76;55.27
47742;BME280;33504;52.066;6.096;2023-01-30T02:16:46;101447.57;;;6.81;54.89
47742;BME280;33504;52.066;6.096;2023-01-30T02:19:28;101443.75;;;7.14;55.25
47742;BME280;33504;52.066;6.096;2023-01-30T02:22:14;101430.89;;;7.15;54.77
47742;BME280;33504;52.066;6.096;2023-01-30T02:24:51;101418.12;;;7.01;55.34
47742;BME280;33504;52.066;6.096;2023-01-30T02:27:33;101416.13;;;7.71;54.50
47742;BME280;33504;52.066;6.096;2023-01-30T02:30:22;101417.11;;;7.39;
47742;BME280;33504;52.066;6.096;2023-01-30T02:33:02;101416.99;;;7.26;55.07
47742;BME280;33504;52.066;6.096;2023-01-30T02:35:39;101413.39;;;7.14;55.40
47742;BME280;33504;52.066;6.096;2023-01-30T02:38:18;101411.99;;;7.34;55.64
47742;BME280;33504;52.066;6.096;2023-01-30T02:40:59;101416.49;;;7.38;54.71
47742;BME280;33504;52.066;6.096;2023-01-30T02:43:32;101403.81;;;7.28;54.99
47742;BME280;33504;52.066;6.096;2023-01-30T02:46:09;101404.69;;;7.25;55.31
47742;BME280;33504;52.066;6.096;2023-01-30T02:48:41;101405.20;;;7.26;55.77
47742;BME280;33504;52.066;6.096;2023-01-30T02:51:12;101387.50;;;7.80;55.58
47742;BME280;33504;52.066;6.096;2023-01-30T02:53:42;101381.79;;;7.57;55.50
47742;BME280;33504;52.066;6.096;2023-01-30T02:56:11;101377.55;;;7.55;55.17
47742;BME280;33504;52.066;6.096;2023-01-30T02:58:42;101382.26;;;7.30;55.92
47742;BME280;33504;52.066;6.096;2023-01-30T03:01:27;101382.88;;;7.75;55.49
47742;BME280;33504;52.066;6.096;2023-01-30T03:04:09;101379.37;;;7.58;55.56
47742;BME280;33504;52.066;6.096;2023-01-30T03:06:55;101374.73;;;7.67;55.48
47742;BME280;33504;52.066;6.096;2023-01-30T03:09:33;101378.66;;;7.81;55.42
47742;BME280;33504;52.066;6.096;2023-01-30T03:12:08;101380.55;;;7.88;55.12
47742;BME280;33504;52.066;6.096;2023-01-30T03:14:43;101375.86;;;7.46;55.49
47742;BME280;33504;52.066;6.096;2023-01-30T03:17:14;101377.68;;;7.64;55.69
47742;BME280;33504;52.066;6.096;2023-01-30T03:19:44;101381.64;;;7.78;55.64
47742;BME280;33504;52.066;6.096;2023-01-30T03:22:11;101374.44;;;7.86;55.47
47742;BME280;33504;52.066;6.096;2023-01-30T03:24:38;101366.28;;;7.69;56.05
47742;BME280;33504;52.066;6.096;2023-01-30T03:27:09;101353.93;;;7.22;56.94
47742;BME280;33504;52.066;6.096;2023-01-30T03:29:37;101354.48;;;7.32;56.46
47742;BME280;33504;52.066;6.096;2023-01-30T03:32:05;101355.88;;;7.74;56.24
47742;BME280;33504;52.066;6.096;2023-01-30T03:34:33;101353.01;;;7.51;56.69
47742;BME280;33504;52.066;6.096;2023-01-30T03:37:00;101350.96;;;7.85;56.18
47742;BME280;33504;52.066;6.096;2023-01-30T03:39:28;101355.22;;;8.03;55.65
47742;BME280;33504;52.066;6.096;2023-01-30T03:41:55;101347.23;;;7.70;56.44
47742;BME280;33504;52.066;6.096;2023-01-30T03:44:22;101343.99;;;7.73;56.45
47742;BME280;33504;52.066;6.096;2023-01-30T03:46:49;101355.65;;;7.75;56.46
47742;BME280;33504;52.066;6.096;2023-01-30T03:49:16;101350.07;;;7.25;57.27
47742;BME280;33504;52.066;6.096;2023-01-30T03:51:44;101344.47;;;7.53;57.12
47742;BME280;33504;52.066;6.096;2023-01-30T03:54:11;101348.19;;;7.58;57.03
47742;BME280;33504;52.066;6.096;2023-01-30T03:56:38;101353.63;;;7.85;56.51
47742;BME280;33504;52.066;6.096;2023-01-30T03:59:07;101350.88;;;7.73;56.69
47742;BME280;33504;52.066;6.096;2023-01-30T04:01:34;101357.97;;;7.75;56.59
47742;BME280;33504;52.066;6.096;2023-01-30T04:04:01;101359.90;;;7.68;56.71
47742;BME280;33504;52.066;6.096;2023-01-30T04:06:28;101353.06;;;8.27;55.67
47742;BME280;33504;52.066;6.096;2023-01-30T04:08:55;101357.14;;;7.83;55.90
47742;BME280;33504;52.066;6.096;2023-01-30T04:11:22;101351.55;;;7.94;56.24
47742;BME280;33504;52.066;6.096;2023-01-30T04:13:49;101362.72;;;8.18;55.72
47742;BME280;33504;52.066;6.096;2023-01-30T04:16:18;101356.64;;;7.80;56.68
47742;BME280;33504;52.066;6.096;2023-01-30T04:18:46;101362.90;;;7.89;56.73
47742;BME280;33504;52.066;6.096;2023-01-30T04:21:13;101360.73;;;8.11;56.38
47742;BME280;33504;52.066;6.096;2023-01-30T04:23:41;101353.27;;;7.83;56.29
47742;BME280;33504;52.066;6.096;2023-01-30T04:26:09;101351.55;;;7.89;56.72
47742;BME280;33504;52.066;6.096;2023-01-30T04:28:36;101346.57;;;7.77;56.97
47742;BME280;33504;52.066;6.096;2023-01-30T04:31:03;101341.16;;;8.11;56.45
47742;BME280;33504;52.066;6.096;2023-01-30T04:33:30;101351.98;;;8.18;55.70
47742;BME280;33504;52.066;6.096;2023-01-30T04:35:58;101341.69;;;7.88;55.95
47742;BME280;33504;52.066;6.096;2023-01-30T04:38:27;101352.03;;;7.78;56.61
47742;BME280;33504;52.066;6.096;2023-01-30T04:40:55;101348.04;;;8.11;55.56
47742;BME280;33504;52.066;6.096;2023-01-30T04:43:23;101353.47;;;8.12;55.23
47742;BME280;33504;52.066;6.096;2023-01-30T04:45:51;101347.83;;;8.04;55.38
47742;BME280;33504;52.066;6.096;2023-01-30T04:48:19;101344.97;;;7.78;55.86
47742;BME280;33504;52.066;6.096;2023-01-30T04:50:48;101337.27;;;7.77;56.00
47742;BME280;33504;52.066;6.096;2023-01-30T04:53:17;101337.88;;;8.68;55.10
47742;BME280;33504;52.066;6.096;2023-01-30T04:55:44;101346.42;;;8.60;55.23
47742;BME280;33504;52.066;6.096;2023-01-30T04:58:12;101345.22;;;8.26;55.11
47742;BME280;33504;52.066;6.096;2023-01-30T05:00:39;101341.03;;;8.07;55.43
47742;BME280;33504;52.066;6.096;2023-01-30T05:03:07;101342.42;;;8.23;54.94
47742;BME280;33504;52.066;6.096;2023-01-30T05:05:34;101339.06;;;8.49;54.90
47742;BME280;33504;52.066;6.096;2023-01-30T05:08:01;101338.94;;;7.92;55.35
47742;BME280;33504;52.066;6.096;2023-01-30T05:10:29;101340.39;;;8.39;55.50
47742;BME280;33504;52.066;6.096;2023-01-30T05:12:55;101340.80;;;7.71;56.21
47742;BME280;33504;52.066;6.096;2023-01-30T05:15:27;101339.44;;;8.19;55.38
47742;BME280;33504;52.066;6.096;2023-01-30T05:17:54;101336.10;;;8.42;55.04
47742;BME280;33504;52.066;6.096;2023-01-30T05:20:20;101333.38;;;8.39;55.07
47742;BME280;33504;52.066;6.096;2023-01-30T05:22:47;101330.08;;;8.09;54.80
47742;BME280;33504;52.066;6.096;2023-01-30T05:25:15;101331.02;;;7.90;55.16
47742;BME280;33504;52.066;6.096;2023-01-30T05:27:42;101338.07;;;7.58;55.77
47742;BME280;33504;52.066;6.096;2023-01-30T05:30:10;101333.78;;;8.03;55.24
47742;BME280;33504;52.066;6.096;2023-01-30T05:32:37;101331.18;;;8.24;55.42
47742;BME280;33504;52.066;6.096;2023-01-30T05:35:05;101331.14;;;8.56;55.15
47742;BME280;33504;52.066;6.096;2023-01-30T05:37:33;101323.10;;;8.13;54.84
47742;BME280;33504;52.066;6.096;2023-01-30T05:40:00;101326.73;;;8.26;54.43
47742;BME280;33504;52.066;6.096;2023-01-30T05:42:27;101331.44;;;8.20;54.80
47742;BME280;33504;52.066;6.096;2023-01-30T05:44:54;101333.12;;;7.80;55.13
47742;BME280;33504;52.066;6.096;2023-01-30T05:47:22;101339.08;;;8.34;55.08
47742;BME280;33504;52.066;6.096;2023-01-30T05:49:49;101336.99;;;7.93;54.52
47742;BME280;33504;52.066;6.096;2023-01-30T05:52:16;101331.26;;;8.08;54.26
47742;BME280;33504;52.066;6.096;2023-01-30T05:54:43;101350.96;;;8.15;54.60
47742;BME280;33504;52.066;6.096;2023-01-30T05:57:11;101357.84;;;7.59;54.60
47742;BME280;33504;52.066;6.096;2023-01-30T05:59:39;101353.08;;;7.82;54.05
47742;BME280;33504;52.066;6.096;2023-01-30T06:02:06;101349.58;;;7.87;54.37
47742;BME280;33504;52.066;6.096;2023-01-30T06:04:33;101362.76;;;8.01;53.98
47742;BME280;33504;52.066;6.096;2023-01-30T06:07:00;101342.95;;;7.87;53.22
47742;BME280;33504;52.066;6.096;2023-01-30T06:09:27;101352.01;;;7.78;53.26
47742;BME280;33504;52.066;6.096;2023-01-30T06:11:54;101350.61;;;8.11;52.79
47742;BME280;33504;52.066;6.096;2023-01-30T06:14:21;101352.34;;;7.63;52.42
47742;BME280;33504;52.066;6.096;2023-01-30T06:16:48;101359.60;;;7.76;52.43
47742;BME280;33504;52.066;6.096;2023-01-30T06:19:14;101367.79;;;7.88;52.02
47742;BME280;33504;52.066;6.096;2023-01-30T06:21:41;101381.05;;;7.83;51.67
47742;BME280;33504;52.066;6.096;2023-01-30T06:24:09;101380.62;;;8.57;51.04
47742;BME280;33504;52.066;6.096;2023-01-30T06:26:35;101381.37;;;8.09;50.98
47742;BME280;33504;52.066;6.096;2023-01-30T06:29:02;101392.41;;;8.42;51.09
47742;BME280;33504;52.066;6.096;2023-01-30T06:31:29;101397.12;;;7.84;50.55
47742;BME280;33504;52.066;6.096;2023-01-30T06:33:56;101405.68;;;8.60;49.45
47742;BME280;33504;52.066;6.096;2023-01-30T06:36:23;101407.25;;;8.27;49.17
47742;BME280;33504;52.066;6.096;2023-01-30T06:38:50;101409.36;;;8.18;48.98
47742;BME280;33504;52.066;6.096;2023-01-30T06:41:18;101395.19;;;7.74;48.86
47742;BME280;33504;52.066;6.096;2023-01-30T06:43:45;101396.41;;;7.74;48.52
47742;BME280;33504;52.066;6.096;2023-01-30T06:46:12;101404.51;;;8.01;48.18
47742;BME280;33504;52.066;6.096;2023-01-30T06:48:39;101403.02;;;7.63;48.46
47742;BME280;33504;52.066;6.096;2023-01-30T06:51:07;101399.31;;;7.71;47.90
47742;BME280;33504;52.066;6.096;2023-01-30T06:53:33;101400.81;;;8.04;48.35
47742;BME280;33504;52.066;6.096;2023-01-30T06:56:01;101399.63;;;7.91;48.25
47742;BME280;33504;52.066;6.096;2023-01-30T06:58:28;101408.48;;;7.91;48.31
47742;BME280;33504;52.066;6.096;2023-01-30T07:00:55;101418.95;;;7.84;48.40
47742;BME280;33504;52.066;6.096;2023-01-30T07:03:23;101422.21;;;8.01;48.18
47742;BME280;33504;52.066;6.096;2023-01-30T07:05:50;101419.06;;;7.88;48.18
47742;BME280;33504;52.066;6.096;2023-01-30T07:08:16;101410.62;;;7.49;48.34
47742;BME280;33504;52.066;6.096;2023-01-30T07:10:44;101419.36;;;7.75;48.18
47742;BME280;33504;52.066;6.096;2023-01-30T07:13:11;101431.06;;;7.78;48.06
47742;BME280;33504;52.066;6.096;2023-01-30T07:15:39;101426.73;;;7.62;47.78
47742;BME280;33504;52.066;6.096;2023-01-30T07:18:07;101431.27;;;7.43;48.01
47742;BME280;33504;52.066;6.096;2023-01-30T07:20:34;101438.94;;;7.56;47.76
47742;BME280;33504;52.066;6.096;2023-01-30T07:23:01;101442.52;;;6.92;48.36
47742;BME280;33504;52.066;6.096;2023-01-30T07:25:29;101439.89;;;7.44;47.69
47742;BME280;33504;52.066;6.096;2023-01-30T07:27:57;101444.47;;;6.70;48.64
47742;BME280;33504;52.066;6.096;2023-01-30T07:30:26;101434.52;;;7.04;48.22
47742;BME280;33504;52.066;6.096;2023-01-30T07:32:54;101441.20;;;7.50;47.82
47742;BME280;33504;52.066;6.096;2023-01-30T07:35:23;101443.82;;;7.49;47.68
47742;BME280;33504;52.066;6.096;2023-01-30T07:37:51;101449.85;;;7.45;47.49
47742;BME280;33504;52.066;6.096;2023-01-30T07:40:19;101446.19;;;7.23;47.70
47742;BME280;33504;52.066;6.096;2023-01-30T07:42:55;101449.30;;;7.20;48.02
47742;BME280;33504;52.066;6.096;2023-01-30T07:45:22;101450.51;;;7.09;47.85
47742;BME280;33504;52.066;6.096;2023-01-30T07:47:49;101457.75;;;7.00;48.60
47742;BME280;33504;52.066;6.096;2023-01-30T07:50:16;101444.56;;;7.18;48.19
47742;BME280;33504;52.066;6.096;2023-01-30T07:52:44;101437.49;;;7.16;48.22
47742;BME280;33504;52.066;6.096;2023-01-30T07:55:11;101431.24;;;7.36;47.90
47742;BME280;33504;52.066;6.096;2023-01-30T07:57:38;101450.94;;;7.04;48.37
47742;BME280;33504;52.066;6.096;2023-01-30T08:00:07;101452.82;;;7.06;47.77
47742;BME280;33504;52.066;6.096;2023-01-30T08:02:35;101455.31;;;7.21;47.44
47742;BME280;33504;52.066;6.096;2023-01-30T08:05:03;101465.34;;;7.13;47.63
47742;BME280;33504;52.066;6.096;2023-01-30T08:07:30;101465.88;;;6.66;47.90
47742;BME280;33504;52.066;6.096;2023-01-30T08:09:57;101475.74;;;6.79;48.12
47742;BME280;33504;52.066;6.096;2023-01-30T08:12:25;101467.25;;;6.83;47.80
47742;BME280;33504;52.066;6.096;2023-01-30T08:14:51;101481.28;;;7.17;47.72
47742;BME280;33504;52.066;6.096;2023-01-30T08:17:19;101479.47;;;7.34;47.43
47742;BME280;33504;52.066;6.096;2023-01-30T08:19:46;101479.79;;;7.18;46.87
47742;BME280;33504;52.066;6.096;2023-01-30T08:22:14;101478.66;;;7.30;46.85
47742;BME280;33504;52.066;6.096;2023-01-30T08:24:41;101476.60;;;7.72;46.22
47742;BME280;33504;52.066;6.096;2023-01-30T08:27:08;101470.14;;;7.65;44.84
47742;BME280;33504;52.066;6.096;2023-01-30T08:29:36;101480.07;;;8.34;44.55
47742;BME280;33504;52.066;6.096;2023-01-30T08:32:04;101475.04;;;8.59;43.72
47742;BME280;33504;52.066;6.096;2023-01-30T08:34:31;101478.19;;;8.25;43.27
47742;BME280;33504;52.066;6.096;2023-01-30T08:36:58;101476.35;;;8.45;43.48
47742;BME280;33504;52.066;6.096;2023-01-30T08:39:25;101478.16;;;8.79;43.25
47742;BME280;33504;52.066;6.096;2023-01-30T08:41:52;101482.78;;;8.77;42.85
47742;BME280;33504;52.066;6.096;2023-01-30T08:44:19;101488.44;;;9.02;42.46
47742;BME280;33504;52.066;6.096;2023-01-30T08:46:46;101495.79;;;8.90;42.28
47742;BME280;33504;52.066;6.096;2023-01-30T08:49:13;101497.41;;;9.18;42.20
47742;BME280;33504;52.066;6.096;2023-01-30T08:51:40;101504.42;;;9.05;42.45
47742;BME280;33504;52.066;6.096;2023-01-30T08:54:07;101507.43;;;8.98;42.07
47742;BME280;33504;52.066;6.096;2023-01-30T08:56:34;101511.51;;;9.76;41.25
47742;BME280;33504;52.066;6.096;2023-01-30T08:59:02;101509.58;;;10.09;40.61
47742;BME280;33504;52.066;6.096;2023-01-30T09:01:28;101510.16;;;9.69;40.79
47742;BME280;33504;52.066;6.096;2023-01-30T09:03:56;101524.90;;;9.41;41.12
47742;BME280;33504;52.066;6.096;2023-01-30T09:06:23;101522.84;;;9.17;41.92
47742;BME280;33504;52.066;6.096;2023-01-30T09:08:51;101531.10;;;9.10;41.62
47742;BME280;33504;52.066;6.096;2023-01-30T09:11:18;101530.41;;;8.75;42.44
47742;BME280;33504;52.066;6.096;2023-01-30T09:13:45;101528.06;;;8.42;42.73
47742;BME280;33504;52.066;6.096;2023-01-30T09:16:12;101532.07;;;8.52;42.89
47742;BME280;33504;52.066;6.096;2023-01-30T09:18:40;101537.22;;;8.51;43.27
47742;BME280;33504;52.066;6.096;2023-01-30T09:21:09;101526.04;;;8.35;42.86
47742;BME280;33504;52.066;6.096;2023-01-30T09:23:36;101528.11;;;7.79;43.88
47742;BME280;33504;52.066;6.096;2023-01-30T09:26:05;101524.06;;;7.52;44.90
47742;BME280;33504;52.066;6.096;2023-01-30T09:28:33;101530.42;;;7.84;44.45
47742;BME280;33504;52.066;6.096;2023-01-30T09:31:01;101531.65;;;7.87;44.54
47742;BME280;33504;52.066;6.096;2023-01-30T09:33:28;101534.50;;;7.91;44.15
47742;BME280;33504;52.066;6.096;2023-01-30T09:35:56;101538.60;;;7.13;44.72
47742;BME280;33504;52.066;6.096;2023-01-30T09:38:23;101543.76;;;7.35;44.90
47742;BME280;33504;52.066;6.096;2023-01-30T09:41:02;101545.69;;;7.63;44.62
47742;BME280;33504;52.066;6.096;2023-01-30T09:43:43;101550.62;;;8.19;44.32
47742;BME280;33504;52.066;6.096;2023-01-30T09:46:20;101551.41;;;7.83;44.26
47742;BME280;33504;52.066;6.096;2023-01-30T09:48:58;101561.90;;;8.00;43.97
47742;BME280;33504;52.066;6.096;2023-01-30T09:51:36;101554.65;;;7.60;44.12
47742;BME280;33504;52.066;6.096;2023-01-30T09:54:20;101559.81;;;8.05;44.14
47742;BME280;33504;52.066;6.096;2023-01-30T09:56:52;101560.49;;;8.12;43.80
47742;BME280;33504;52.066;6.096;2023-01-30T09:59:29;101564.50;;;8.05;43.64
47742;BME280;33504;52.066;6.096;2023-01-30T10:04:39;101569.71;;;7.94;43.63
47742;BME280;33504;52.066;6.096;2023-01-30T10:07:20;101566.36;;;8.39;43.62
47742;BME280;33504;52.066;6.096;2023-01-30T10:09:53;101566.05;;;8.11;43.82
47742;BME280;33504;52.066;6.096;2023-01-30T10:12:34;101573.72;;;8.51;43.06
47742;BME280;33504;52.066;6.096;2023-01-30T10:15:16;101574.17;;;8.44;43.04
47742;BME280;33504;52.066;6.096;2023-01-30T10:17:57;101574.48;;;8.66;42.63
47742;BME280;33504;52.066;6.096;2023-01-30T10:20:34;101575.33;;;8.41;42.65
47742;BME280;33504;52.066;6.096;2023-01-30T10:23:18;101577.45;;;8.24;43.00
47742;BME280;33504;52.066;6.096;2023-01-30T10:25:53;101577.90;;;8.80;42.54
47742;BME280;33504;52.066;6.096;2023-01-30T10:28:25;101591.93;;;8.62;42.78
47742;BME280;33504;52.066;6.096;2023-01-30T10:31:01;101585.88;;;8.67;42.62
47742;BME280;33504;52.066;6.096;2023-01-30T10:33:32;101594.70;;;7.40;43.52
47742;BME280;33504;52.066;6.096;2023-01-30T10:36:05;101591.44;;;7.82;43.20
47742;BME280;33504;52.066;6.096;2023-01-30T10:38:39;101587.75;;;8.22;43.53
47742;BME280;33504;52.066;6.096;2023-01-30T10:41:16;101588.83;;;7.96;43.07
47742;BME280;33504;52.066;6.096;2023-01-30T10:43:47;101584.36;;;8.07;43.02
47742;BME280;33504;52.066;6.096;2023-01-30T10:46:30;101584.58;;;7.99;43.32
47742;BME280;33504;52.066;6.096;2023-01-30T10:49:03;101595.67;;;7.80;42.89
47742;BME280;33504;52.066;6.096;2023-01-30T10:51:39;101585.51;;;8.16;42.17
47742;BME280;33504;52.066;6.096;2023-01-30T10:54:12;101580.19;;;8.40;42.22
47742;BME280;33504;52.066;6.096;2023-01-30T10:56:46;101585.85;;;8.33;41.70
47742;BME280;33504;52.066;6.096;2023-01-30T10:59:21;101588.36;;;8.50;41.96
47742;BME280;33504;52.066;6.096;2023-01-30T11:01:57;101588.46;;;8.30;42.07
47742;BME280;33504;52.066;6.096;2023-01-30T11:04:28;101602.06;;;8.74;42.04
47742;BME280;33504;52.066;6.096;2023-01-30T11:06:58;101601.71;;;8.09;42.48
47742;BME280;33504;52.066;6.096;2023-01-30T11:09:38;101588.84;;;8.84;42.03
47742;BME280;33504;52.066;6.096;2023-01-30T11:12:09;101583.05;;;9.11;41.39
47742;BME280;33504;52.066;6.096;2023-01-30T11:14:54;101591.45;;;9.01;41.16
47742;BME280;33504;52.066;6.096;2023-01-30T11:17:28;101596.39;;;8.60;41.02
47742;BME280;33504;52.066;6.096;2023-01-30T11:20:00;101600.01;;;8.61;40.85
47742;BME280;33504;52.066;6.096;2023-01-30T11:22:30;101590.77;;;8.94;40.84
47742;BME280;33504;52.066;6.096;2023-01-30T11:25:04;101597.94;;;9.23;40.31
47742;BME280;33504;52.066;6.096;2023-01-30T11:27:33;101613.87;;;9.64;39.91
47742;BME280;33504;52.066;6.096;2023-01-30T11:30:05;101597.89;;;9.43;39.31
47742;BME280;33504;52.066;6.096;2023-01-30T11:32:33;101593.36;;;10.67;38.32
47742;BME280;33504;52.066;6.096;2023-01-30T11:35:14;101589.25;;;10.32;38.41
47742;BME280;33504;52.066;6.096;2023-01-30T11:37:45;101601.19;;;9.89;38.51
47742;BME280;33504;52.066;6.096;2023-01-30T11:40:22;101606.85;;;9.19;38.58
47742;BME280;33504;52.066;6.096;2023-01-30T11:42:52;101609.52;;;9.23;39.16
47742;BME280;33504;52.066;6.096;2023-01-30T11:45:24;101616.58;;;8.64;40.07
47742;BME280;33504;52.066;6.096;2023-01-30T11:47:55;101613.26;;;9.33;39.67
47742;BME280;33504;52.066;6.096;2023-01-30T11:50:28;101620.49;;;9.74;39.45
47742;BME280;33504;52.066;6.096;2023-01-30T11:53:01;101617.79;;;9.13;39.86
47742;BME280;33504;52.066;6.096;2023-01-30T11:55:38;101622.25;;;9.49;39.07
47742;BME280;33504;52.066;6.096;2023-01-30T11:58:07;101617.89;;;9.30;39.41
47742;BME280;33504;52.066;6.096;2023-01-30T12:00:38;101604.19;;;9.43;39.43
47742;BME280;33504;52.066;6.096;2023-01-30T12:03:10;101618.09;;;9.10;39.61
47742;BME280;33504;52.066;6.096;2023-01-30T12:05:40;101616.72;;;8.93;39.18
47742;BME280;33504;52.066;6.096;2023-01-30T12:08:20;101606.52;;;9.52;38.51
47742;BME280;33504;52.066;6.096;2023-01-30T12:10:50;101607.84;;;9.49;38.58
47742;BME280;33504;52.066;6.096;2023-01-30T12:13:22;101613.10;;;9.29;38.23
47742;BME280;33504;52.066;6.096;2023-01-30T12:15:54;101616.48;;;9.55;38.79
47742;BME280;33504;52.066;6.096;2023-01-30T12:18:31;101615.20;;;9.33;38.80
47742;BME280;33504;52.066;6.096;2023-01-30T12:21:00;101620.66;;;9.53;38.38
47742;BME280;33504;52.066;6.096;2023-01-30T12:23:35;101622.03;;;9.44;38.65
47742;BME280;33504;52.066;6.096;2023-01-30T12:26:09;101627.42;;;9.17;38.93
47742;BME280;33504;52.066;6.096;2023-01-30T12:28:45;101622.84;;;9.11;39.12
47742;BME280;33504;52.066;6.096;2023-01-30T12:31:18;101637.42;;;8.99;39.52
47742;BME280;33504;52.066;6.096;2023-01-30T12:33:48;101631.79;;;8.91;39.21
47742;BME280;33504;52.066;6.096;2023-01-30T12:36:24;101635.90;;;8.53;40.42
47742;BME280;33504;52.066;6.096;2023-01-30T12:38:59;101642.48;;;8.86;39.92
47742;BME280;33504;52.066;6.096;2023-01-30T12:41:44;101641.89;;;9.38;39.58
47742;BME280;33504;52.066;6.096;2023-01-30T12:44:25;101645.06;;;9.60;39.07
47742;BME280;33504;52.066;6.096;2023-01-30T12:47:05;101647.46;;;9.14;39.35
47742;BME280;33504;52.066;6.096;2023-01-30T12:49:44;101641.34;;;9.60;39.58
47742;BME280;33504;52.066;6.096;2023-01-30T12:52:29;101646.72;;;9.14;39.45
47742;BME280;33504;52.066;6.096;2023-01-30T12:55:13;101643.54;;;8.96;39.60
47742;BME280;33504;52.066;6.096;2023-01-30T12:57:47;101646.60;;;9.23;40.02
47742;BME280;33504;52.066;6.096;2023-01-30T13:00:30;101651.90;;;9.07;40.44
47742;BME280;33504;52.066;6.096;2023-01-30T13:03:14;101654.65;;;9.72;39.43
47742;BME280;33504;52.066;6.096;2023-01-30T13:05:48;101660.53;;;9.85;38.86
47742;BME280;33504;52.066;6.096;2023-01-30T13:08:32;101656.36;;;10.41;38.79
47742;BME280;33504;52.066;6.096;2023-01-30T13:11:13;101675.02;;;9.33;39.53
47742;BME280;33504;52.066;6.096;2023-01-30T13:13:48;101674.38;;;9.20;39.94
47742;BME280;33504;52.066;6.096;2023-01-30T13:16:29;101671.21;;;9.05;39.93
47742;BME280;33504;52.066;6.096;2023-01-30T13:19:04;101676.62;;;9.18;39.66